DLH646 UACC-UAAA
Flight info
| Callsign | DLH646 |
|---|---|
| Flight time | 1h 18m |
| Altitude | 35000 |
| Route | BANOS W333 ETEDA ETED1R |
| Aircraft | A339/H-SADE1E2E3GHIJ3J5M1P2RWXY/LB2D1 |
Departure
| Time | 2026-05-04 18:43 |
|---|---|
| Airport | Nursultan Nazarbayev International Airport (UACC) |
Arrival
| Time | 2026-05-04 20:02 |
|---|---|
| Airport | Almaty International Airport (UAAA) |
| Time | Latitude | Longitude | Altitude | Speed | Heading |
|---|---|---|---|---|---|
| 2026-05-04 18:28 | 51.02651 | 71.45916 | 1176 ft | 0 kts | 44° |
| 2026-05-04 18:33 | 51.02647 | 71.45910 | 1177 ft | 2 kts | 44° |
| 2026-05-04 18:33 | 51.02636 | 71.45894 | 1176 ft | 2 kts | 44° |
| 2026-05-04 18:33 | 51.02625 | 71.45877 | 1176 ft | 2 kts | 44° |
| 2026-05-04 18:33 | 51.02615 | 71.45861 | 1176 ft | 2 kts | 44° |
| 2026-05-04 18:34 | 51.02604 | 71.45845 | 1176 ft | 2 kts | 44° |
| 2026-05-04 18:34 | 51.02593 | 71.45828 | 1176 ft | 2 kts | 44° |
| 2026-05-04 18:34 | 51.02582 | 71.45812 | 1176 ft | 2 kts | 44° |
| 2026-05-04 18:34 | 51.02578 | 71.45805 | 1176 ft | 0 kts | 44° |
| 2026-05-04 18:36 | 51.02581 | 71.45811 | 1176 ft | 0 kts | 45° |
| 2026-05-04 18:36 | 51.02588 | 71.45824 | 1176 ft | 3 kts | 56° |
| 2026-05-04 18:37 | 51.02594 | 71.45892 | 1176 ft | 8 kts | 104° |
| 2026-05-04 18:37 | 51.02553 | 71.45964 | 1177 ft | 9 kts | 143° |
| 2026-05-04 18:37 | 51.02499 | 71.46021 | 1178 ft | 9 kts | 147° |
| 2026-05-04 18:37 | 51.02445 | 71.46089 | 1178 ft | 10 kts | 136° |
| 2026-05-04 18:38 | 51.02395 | 71.46172 | 1178 ft | 11 kts | 134° |
| 2026-05-04 18:38 | 51.02359 | 71.46283 | 1176 ft | 12 kts | 85° |
| 2026-05-04 18:38 | 51.02407 | 71.46395 | 1177 ft | 12 kts | 46° |
| 2026-05-04 18:38 | 51.02473 | 71.46500 | 1177 ft | 13 kts | 45° |
| 2026-05-04 18:39 | 51.02544 | 71.46613 | 1177 ft | 14 kts | 46° |
| 2026-05-04 18:39 | 51.02616 | 71.46728 | 1178 ft | 15 kts | 45° |
| 2026-05-04 18:39 | 51.02695 | 71.46847 | 1177 ft | 16 kts | 44° |
| 2026-05-04 18:39 | 51.02779 | 71.46978 | 1176 ft | 17 kts | 45° |
| 2026-05-04 18:40 | 51.02868 | 71.47118 | 1175 ft | 18 kts | 45° |
| 2026-05-04 18:40 | 51.02959 | 71.47259 | 1174 ft | 15 kts | 44° |
| 2026-05-04 18:40 | 51.03038 | 71.47381 | 1173 ft | 16 kts | 45° |
| 2026-05-04 18:40 | 51.03122 | 71.47514 | 1172 ft | 17 kts | 44° |
| 2026-05-04 18:41 | 51.03210 | 71.47651 | 1173 ft | 17 kts | 45° |
| 2026-05-04 18:41 | 51.03299 | 71.47789 | 1173 ft | 18 kts | 45° |
| 2026-05-04 18:41 | 51.03385 | 71.47929 | 1173 ft | 15 kts | 46° |
| 2026-05-04 18:41 | 51.03426 | 71.48080 | 1173 ft | 15 kts | 85° |
| 2026-05-04 18:42 | 51.03423 | 71.48251 | 1173 ft | 15 kts | 109° |
| 2026-05-04 18:42 | 51.03365 | 71.48336 | 1173 ft | 8 kts | 189° |
| 2026-05-04 18:42 | 51.03339 | 71.48313 | 1172 ft | 0 kts | 217° |
| 2026-05-04 18:42 | 51.03304 | 71.48268 | 1173 ft | 32 kts | 221° |
| 2026-05-04 18:43 | 51.02928 | 71.47670 | 1175 ft | 119 kts | 225° |
| 2026-05-04 18:43 | 51.02174 | 71.46474 | 1213 ft | 184 kts | 227° |
| 2026-05-04 18:43 | 51.01250 | 71.45005 | 2016 ft | 191 kts | 224° |
| 2026-05-04 18:43 | 51.00277 | 71.43516 | 2841 ft | 199 kts | 218° |
| 2026-05-04 18:44 | 50.99068 | 71.42641 | 3605 ft | 198 kts | 182° |
| 2026-05-04 18:44 | 50.98158 | 71.42832 | 4134 ft | 201 kts | 159° |
| 2026-05-04 18:44 | 50.96666 | 71.44590 | 5160 ft | 209 kts | 139° |
| 2026-05-04 18:44 | 50.95639 | 71.46227 | 5923 ft | 212 kts | 137° |
| 2026-05-04 18:45 | 50.94631 | 71.47875 | 6672 ft | 213 kts | 137° |
| 2026-05-04 18:45 | 50.93599 | 71.49551 | 7344 ft | 217 kts | 138° |
| 2026-05-04 18:45 | 50.92496 | 71.51312 | 7787 ft | 233 kts | 138° |
| 2026-05-04 18:45 | 50.91316 | 71.53181 | 8210 ft | 251 kts | 138° |
| 2026-05-04 18:46 | 50.90040 | 71.55195 | 8633 ft | 269 kts | 137° |
| 2026-05-04 18:46 | 50.88682 | 71.57333 | 9069 ft | 287 kts | 137° |
| 2026-05-04 18:46 | 50.87209 | 71.59650 | 9514 ft | 306 kts | 137° |
| 2026-05-04 18:46 | 50.85656 | 71.62086 | 9929 ft | 325 kts | 137° |
| 2026-05-04 18:47 | 50.84009 | 71.64671 | 10301 ft | 344 kts | 137° |
| 2026-05-04 18:47 | 50.82276 | 71.67385 | 10675 ft | 362 kts | 137° |
| 2026-05-04 18:47 | 50.80442 | 71.70246 | 11063 ft | 380 kts | 137° |
| 2026-05-04 18:47 | 50.78550 | 71.73201 | 11678 ft | 390 kts | 137° |
| 2026-05-04 18:48 | 50.76602 | 71.76244 | 12414 ft | 395 kts | 137° |
| 2026-05-04 18:48 | 50.74643 | 71.79294 | 13187 ft | 400 kts | 137° |
| 2026-05-04 18:48 | 50.72663 | 71.82368 | 13922 ft | 406 kts | 137° |
| 2026-05-04 18:48 | 50.70649 | 71.85493 | 14669 ft | 411 kts | 137° |
| 2026-05-04 18:49 | 50.68613 | 71.88648 | 15396 ft | 416 kts | 137° |
| 2026-05-04 18:49 | 50.66534 | 71.91864 | 16164 ft | 420 kts | 137° |
| 2026-05-04 18:49 | 50.64453 | 71.95076 | 16883 ft | 425 kts | 137° |
| 2026-05-04 18:49 | 50.62338 | 71.98344 | 17580 ft | 431 kts | 137° |
| 2026-05-04 18:50 | 50.60186 | 72.01658 | 18280 ft | 436 kts | 137° |
| 2026-05-04 18:50 | 50.58034 | 72.04971 | 19001 ft | 440 kts | 137° |
| 2026-05-04 18:50 | 50.55837 | 72.08349 | 19706 ft | 444 kts | 137° |
| 2026-05-04 18:50 | 50.53624 | 72.11746 | 20432 ft | 447 kts | 137° |
| 2026-05-04 18:51 | 50.51399 | 72.15157 | 21134 ft | 451 kts | 137° |
| 2026-05-04 18:51 | 50.49144 | 72.18610 | 21772 ft | 455 kts | 137° |
| 2026-05-04 18:51 | 50.46884 | 72.22067 | 22405 ft | 458 kts | 137° |
| 2026-05-04 18:51 | 50.44608 | 72.25542 | 23040 ft | 461 kts | 137° |
| 2026-05-04 18:52 | 50.42300 | 72.29060 | 23609 ft | 465 kts | 137° |
| 2026-05-04 18:52 | 50.39977 | 72.32594 | 24149 ft | 469 kts | 137° |
| 2026-05-04 18:52 | 50.37662 | 72.36109 | 24636 ft | 474 kts | 137° |
| 2026-05-04 18:52 | 50.35284 | 72.39717 | 25113 ft | 479 kts | 137° |
| 2026-05-04 18:53 | 50.32902 | 72.43328 | 25626 ft | 482 kts | 137° |
| 2026-05-04 18:53 | 50.30480 | 72.46993 | 26130 ft | 485 kts | 137° |
| 2026-05-04 18:53 | 50.28067 | 72.50637 | 26591 ft | 489 kts | 137° |
| 2026-05-04 18:53 | 50.25623 | 72.54321 | 27020 ft | 493 kts | 137° |
| 2026-05-04 18:54 | 50.23148 | 72.58043 | 27443 ft | 497 kts | 136° |
| 2026-05-04 18:54 | 50.20639 | 72.61814 | 27838 ft | 501 kts | 136° |
| 2026-05-04 18:54 | 50.18145 | 72.65556 | 28234 ft | 505 kts | 137° |
| 2026-05-04 18:54 | 50.15592 | 72.69350 | 28661 ft | 508 kts | 138° |
| 2026-05-04 18:55 | 50.12997 | 72.73178 | 28886 ft | 515 kts | 138° |
| 2026-05-04 18:55 | 50.07772 | 72.80846 | 29389 ft | 524 kts | 137° |
| 2026-05-04 18:55 | 50.05123 | 72.84725 | 29863 ft | 523 kts | 137° |
| 2026-05-04 18:56 | 50.02478 | 72.88595 | 30373 ft | 522 kts | 137° |
| 2026-05-04 18:56 | 49.99834 | 72.92455 | 30854 ft | 521 kts | 137° |
| 2026-05-04 18:56 | 49.97229 | 72.96255 | 31272 ft | 520 kts | 137° |
| 2026-05-04 18:56 | 49.94605 | 73.00077 | 31734 ft | 520 kts | 137° |
| 2026-05-04 18:57 | 49.91977 | 73.03900 | 32152 ft | 520 kts | 138° |
| 2026-05-04 18:57 | 49.89339 | 73.07727 | 32562 ft | 520 kts | 137° |
| 2026-05-04 18:57 | 49.86695 | 73.11554 | 32977 ft | 520 kts | 137° |
| 2026-05-04 18:57 | 49.84051 | 73.15374 | 33398 ft | 518 kts | 137° |
| 2026-05-04 18:58 | 49.81424 | 73.19164 | 33866 ft | 517 kts | 137° |
| 2026-05-04 18:58 | 49.78814 | 73.22923 | 34334 ft | 515 kts | 137° |
| 2026-05-04 18:58 | 49.76208 | 73.26674 | 34709 ft | 514 kts | 138° |
| 2026-05-04 18:58 | 49.73513 | 73.30273 | 35031 ft | 514 kts | 141° |
| 2026-05-04 18:59 | 49.70677 | 73.33620 | 35152 ft | 514 kts | 145° |
| 2026-05-04 18:59 | 49.67705 | 73.36665 | 35159 ft | 512 kts | 149° |
| 2026-05-04 18:59 | 49.61463 | 73.41779 | 35157 ft | 510 kts | 157° |
| 2026-05-04 19:00 | 49.54895 | 73.45831 | 35157 ft | 510 kts | 160° |
| 2026-05-04 19:00 | 49.48311 | 73.49752 | 35162 ft | 509 kts | 160° |
| 2026-05-04 19:01 | 49.41755 | 73.53674 | 35156 ft | 510 kts | 160° |
| 2026-05-04 19:01 | 49.35163 | 73.57619 | 35173 ft | 509 kts | 160° |
| 2026-05-04 19:02 | 49.28552 | 73.61564 | 35177 ft | 511 kts | 160° |
| 2026-05-04 19:02 | 49.21987 | 73.65473 | 35183 ft | 510 kts | 160° |
| 2026-05-04 19:03 | 49.15374 | 73.69398 | 35194 ft | 511 kts | 160° |
| 2026-05-04 19:03 | 49.08748 | 73.73319 | 35188 ft | 510 kts | 160° |
| 2026-05-04 19:04 | 49.02142 | 73.77209 | 35198 ft | 510 kts | 160° |
| 2026-05-04 19:04 | 48.95549 | 73.81087 | 35204 ft | 511 kts | 160° |
| 2026-05-04 19:05 | 48.88967 | 73.84943 | 35203 ft | 511 kts | 160° |
| 2026-05-04 19:05 | 48.82321 | 73.88817 | 35200 ft | 511 kts | 160° |
| 2026-05-04 19:06 | 48.75719 | 73.92649 | 35201 ft | 512 kts | 160° |
| 2026-05-04 19:06 | 48.69076 | 73.96494 | 35194 ft | 512 kts | 160° |
| 2026-05-04 19:07 | 48.62469 | 74.00307 | 35198 ft | 510 kts | 160° |
| 2026-05-04 19:07 | 48.55846 | 74.04119 | 35198 ft | 510 kts | 160° |
| 2026-05-04 19:08 | 48.49233 | 74.07914 | 35205 ft | 510 kts | 160° |
| 2026-05-04 19:08 | 48.42616 | 74.11700 | 35205 ft | 510 kts | 160° |
| 2026-05-04 19:09 | 48.35990 | 74.15479 | 35199 ft | 511 kts | 160° |
| 2026-05-04 19:09 | 48.29359 | 74.19250 | 35207 ft | 510 kts | 160° |
| 2026-05-04 19:10 | 48.22759 | 74.22993 | 35201 ft | 510 kts | 160° |
| 2026-05-04 19:10 | 48.16132 | 74.26734 | 35201 ft | 509 kts | 160° |
| 2026-05-04 19:11 | 48.09534 | 74.30482 | 35199 ft | 509 kts | 159° |
| 2026-05-04 19:11 | 48.02944 | 74.34264 | 35202 ft | 509 kts | 159° |
| 2026-05-04 19:12 | 47.93029 | 74.39918 | 35179 ft | 509 kts | 159° |
| 2026-05-04 19:13 | 47.86459 | 74.43645 | 35194 ft | 508 kts | 159° |
| 2026-05-04 19:13 | 47.79875 | 74.47369 | 35195 ft | 508 kts | 159° |
| 2026-05-04 19:14 | 47.73285 | 74.51085 | 35188 ft | 508 kts | 159° |
| 2026-05-04 19:14 | 47.66693 | 74.54790 | 35188 ft | 508 kts | 159° |
| 2026-05-04 19:15 | 47.60101 | 74.58481 | 35198 ft | 507 kts | 159° |
| 2026-05-04 19:15 | 47.53515 | 74.62161 | 35176 ft | 507 kts | 159° |
| 2026-05-04 19:16 | 47.46976 | 74.65852 | 35168 ft | 506 kts | 159° |
| 2026-05-04 19:16 | 47.40396 | 74.69559 | 35183 ft | 507 kts | 159° |
| 2026-05-04 19:17 | 47.33826 | 74.73239 | 35178 ft | 506 kts | 159° |
| 2026-05-04 19:17 | 47.27280 | 74.76894 | 35176 ft | 506 kts | 160° |
| 2026-05-04 19:18 | 47.20807 | 74.80498 | 35166 ft | 506 kts | 160° |
| 2026-05-04 19:18 | 47.14242 | 74.84141 | 35167 ft | 506 kts | 160° |
| 2026-05-04 19:19 | 47.07697 | 74.87762 | 35161 ft | 505 kts | 159° |
| 2026-05-04 19:19 | 47.01163 | 74.91367 | 35140 ft | 504 kts | 159° |
| 2026-05-04 19:20 | 46.94609 | 74.94973 | 35160 ft | 504 kts | 159° |
| 2026-05-04 19:20 | 46.88041 | 74.98627 | 35156 ft | 504 kts | 158° |
| 2026-05-04 19:21 | 46.81621 | 75.02704 | 35158 ft | 504 kts | 156° |
| 2026-05-04 19:21 | 46.75220 | 75.06769 | 35147 ft | 504 kts | 156° |
| 2026-05-04 19:22 | 46.68820 | 75.10819 | 35130 ft | 504 kts | 156° |
| 2026-05-04 19:22 | 46.62395 | 75.14872 | 35147 ft | 504 kts | 156° |
| 2026-05-04 19:23 | 46.55979 | 75.18908 | 35129 ft | 503 kts | 156° |
| 2026-05-04 19:23 | 46.49580 | 75.22923 | 35133 ft | 503 kts | 156° |
| 2026-05-04 19:24 | 46.43187 | 75.26924 | 35126 ft | 503 kts | 156° |
| 2026-05-04 19:24 | 46.36754 | 75.30937 | 35146 ft | 503 kts | 156° |
| 2026-05-04 19:25 | 46.30352 | 75.34919 | 35139 ft | 503 kts | 156° |
| 2026-05-04 19:25 | 46.23947 | 75.38893 | 35140 ft | 501 kts | 156° |
| 2026-05-04 19:26 | 46.17559 | 75.42875 | 35126 ft | 501 kts | 156° |
| 2026-05-04 19:26 | 46.11221 | 75.46841 | 35141 ft | 500 kts | 156° |
| 2026-05-04 19:27 | 46.04841 | 75.50816 | 35158 ft | 501 kts | 156° |
| 2026-05-04 19:27 | 45.98433 | 75.54792 | 35145 ft | 499 kts | 156° |
| 2026-05-04 19:28 | 45.92111 | 75.58703 | 35139 ft | 499 kts | 156° |
| 2026-05-04 19:28 | 45.85746 | 75.62628 | 35160 ft | 498 kts | 156° |
| 2026-05-04 19:29 | 45.79392 | 75.66534 | 35141 ft | 499 kts | 157° |
| 2026-05-04 19:29 | 45.73015 | 75.70445 | 35149 ft | 500 kts | 157° |
| 2026-05-04 19:30 | 45.66608 | 75.74384 | 35146 ft | 499 kts | 157° |
| 2026-05-04 19:30 | 45.60267 | 75.78275 | 35151 ft | 498 kts | 158° |
| 2026-05-04 19:31 | 45.53894 | 75.82166 | 35151 ft | 499 kts | 158° |
| 2026-05-04 19:31 | 45.47551 | 75.86037 | 35148 ft | 498 kts | 158° |
| 2026-05-04 19:32 | 45.41186 | 75.89890 | 35139 ft | 499 kts | 158° |
| 2026-05-04 19:32 | 45.34847 | 75.93734 | 35115 ft | 497 kts | 158° |
| 2026-05-04 19:33 | 45.28490 | 75.97574 | 35127 ft | 498 kts | 158° |
| 2026-05-04 19:33 | 45.22131 | 76.01408 | 35140 ft | 496 kts | 159° |
| 2026-05-04 19:33 | 45.18949 | 76.03320 | 34972 ft | 497 kts | 158° |
| 2026-05-04 19:34 | 45.15773 | 76.05230 | 34569 ft | 497 kts | 159° |
| 2026-05-04 19:34 | 45.12604 | 76.07134 | 34083 ft | 498 kts | 159° |
| 2026-05-04 19:34 | 45.09401 | 76.09052 | 33590 ft | 499 kts | 159° |
| 2026-05-04 19:34 | 45.06237 | 76.10944 | 33089 ft | 500 kts | 159° |
| 2026-05-04 19:35 | 45.03043 | 76.12853 | 32584 ft | 502 kts | 159° |
| 2026-05-04 19:35 | 44.99820 | 76.14780 | 32088 ft | 503 kts | 159° |
| 2026-05-04 19:35 | 44.96606 | 76.16698 | 31591 ft | 503 kts | 159° |
| 2026-05-04 19:35 | 44.93396 | 76.18611 | 31096 ft | 503 kts | 159° |
| 2026-05-04 19:36 | 44.90184 | 76.20520 | 30602 ft | 504 kts | 159° |
| 2026-05-04 19:36 | 44.86914 | 76.22465 | 30101 ft | 503 kts | 159° |
| 2026-05-04 19:36 | 44.83705 | 76.24370 | 29620 ft | 500 kts | 159° |
| 2026-05-04 19:36 | 44.80502 | 76.26263 | 29145 ft | 496 kts | 159° |
| 2026-05-04 19:37 | 44.77330 | 76.28139 | 28679 ft | 491 kts | 159° |
| 2026-05-04 19:37 | 44.74214 | 76.29981 | 28106 ft | 487 kts | 158° |
| 2026-05-04 19:37 | 44.71108 | 76.31815 | 27455 ft | 483 kts | 158° |
| 2026-05-04 19:37 | 44.68031 | 76.33629 | 26829 ft | 479 kts | 158° |
| 2026-05-04 19:38 | 44.64989 | 76.35420 | 26297 ft | 474 kts | 158° |
| 2026-05-04 19:38 | 44.61937 | 76.37215 | 25800 ft | 473 kts | 158° |
| 2026-05-04 19:38 | 44.58924 | 76.38985 | 25301 ft | 470 kts | 158° |
| 2026-05-04 19:38 | 44.55946 | 76.40733 | 24835 ft | 467 kts | 158° |
| 2026-05-04 19:39 | 44.52981 | 76.42470 | 24376 ft | 464 kts | 158° |
| 2026-05-04 19:39 | 44.49997 | 76.44216 | 23889 ft | 461 kts | 158° |
| 2026-05-04 19:39 | 44.47066 | 76.45930 | 23427 ft | 458 kts | 157° |
| 2026-05-04 19:39 | 44.44147 | 76.47634 | 23115 ft | 449 kts | 157° |
| 2026-05-04 19:40 | 44.41307 | 76.49292 | 23103 ft | 432 kts | 157° |
| 2026-05-04 19:40 | 44.38603 | 76.50870 | 23105 ft | 416 kts | 157° |
| 2026-05-04 19:40 | 44.35965 | 76.52369 | 23099 ft | 400 kts | 161° |
| 2026-05-04 19:40 | 44.33291 | 76.52937 | 23065 ft | 396 kts | 184° |
| 2026-05-04 19:41 | 44.30599 | 76.52081 | 22674 ft | 396 kts | 201° |
| 2026-05-04 19:41 | 44.28072 | 76.50613 | 22321 ft | 392 kts | 204° |
| 2026-05-04 19:41 | 44.25595 | 76.49115 | 21838 ft | 394 kts | 204° |
| 2026-05-04 19:41 | 44.23058 | 76.47649 | 21434 ft | 390 kts | 202° |
| 2026-05-04 19:42 | 44.20581 | 76.46272 | 21015 ft | 388 kts | 201° |
| 2026-05-04 19:42 | 44.17985 | 76.45337 | 20556 ft | 387 kts | 182° |
| 2026-05-04 19:42 | 44.15332 | 76.45904 | 20094 ft | 386 kts | 157° |
| 2026-05-04 19:42 | 44.13128 | 76.47909 | 19607 ft | 382 kts | 131° |
| 2026-05-04 19:43 | 44.11713 | 76.50962 | 19301 ft | 372 kts | 113° |
| 2026-05-04 19:43 | 44.10641 | 76.54189 | 19011 ft | 370 kts | 113° |
| 2026-05-04 19:43 | 44.09501 | 76.57400 | 18719 ft | 370 kts | 115° |
| 2026-05-04 19:43 | 44.08275 | 76.60542 | 18435 ft | 368 kts | 117° |
| 2026-05-04 19:44 | 44.07007 | 76.63586 | 18074 ft | 365 kts | 118° |
| 2026-05-04 19:44 | 44.05698 | 76.66595 | 17656 ft | 363 kts | 120° |
| 2026-05-04 19:44 | 44.04387 | 76.69546 | 17245 ft | 361 kts | 120° |
| 2026-05-04 19:44 | 44.03054 | 76.72510 | 16778 ft | 360 kts | 120° |
| 2026-05-04 19:45 | 44.01740 | 76.75409 | 16437 ft | 357 kts | 120° |
| 2026-05-04 19:45 | 44.00423 | 76.78301 | 16076 ft | 354 kts | 120° |
| 2026-05-04 19:45 | 43.99113 | 76.81179 | 15626 ft | 352 kts | 121° |
| 2026-05-04 19:45 | 43.97800 | 76.84058 | 15230 ft | 350 kts | 121° |
| 2026-05-04 19:46 | 43.96504 | 76.86893 | 14869 ft | 347 kts | 121° |
| 2026-05-04 19:46 | 43.95222 | 76.89693 | 14479 ft | 344 kts | 121° |
| 2026-05-04 19:46 | 43.93953 | 76.92464 | 14115 ft | 343 kts | 121° |
| 2026-05-04 19:46 | 43.92672 | 76.95258 | 13697 ft | 341 kts | 121° |
| 2026-05-04 19:47 | 43.91259 | 76.97910 | 13300 ft | 341 kts | 131° |
| 2026-05-04 19:47 | 43.89496 | 77.00074 | 12924 ft | 341 kts | 141° |
| 2026-05-04 19:47 | 43.87611 | 77.02027 | 12559 ft | 339 kts | 142° |
| 2026-05-04 19:47 | 43.85709 | 77.03951 | 12113 ft | 337 kts | 142° |
| 2026-05-04 19:48 | 43.83830 | 77.05853 | 11809 ft | 335 kts | 142° |
| 2026-05-04 19:48 | 43.81957 | 77.07751 | 11489 ft | 334 kts | 142° |
| 2026-05-04 19:48 | 43.80079 | 77.09631 | 11163 ft | 334 kts | 144° |
| 2026-05-04 19:48 | 43.78105 | 77.11371 | 10783 ft | 333 kts | 147° |
| 2026-05-04 19:49 | 43.76138 | 77.13026 | 10425 ft | 331 kts | 147° |
| 2026-05-04 19:49 | 43.74180 | 77.14677 | 10123 ft | 331 kts | 147° |
| 2026-05-04 19:49 | 43.72236 | 77.16335 | 9852 ft | 331 kts | 146° |
| 2026-05-04 19:49 | 43.70290 | 77.17980 | 9658 ft | 328 kts | 150° |
| 2026-05-04 19:50 | 43.68108 | 77.18895 | 9782 ft | 332 kts | 176° |
| 2026-05-04 19:50 | 43.65815 | 77.18454 | 10037 ft | 333 kts | 193° |
| 2026-05-04 19:50 | 43.63611 | 77.17607 | 10183 ft | 326 kts | 195° |
| 2026-05-04 19:50 | 43.61486 | 77.16756 | 10204 ft | 315 kts | 195° |
| 2026-05-04 19:51 | 43.59394 | 77.15967 | 10128 ft | 303 kts | 194° |
| 2026-05-04 19:51 | 43.57387 | 77.15256 | 10070 ft | 297 kts | 193° |
| 2026-05-04 19:51 | 43.55372 | 77.14571 | 10163 ft | 299 kts | 193° |
| 2026-05-04 19:51 | 43.53353 | 77.13897 | 9984 ft | 298 kts | 193° |
| 2026-05-04 19:52 | 43.51375 | 77.13120 | 10032 ft | 296 kts | 205° |
| 2026-05-04 19:52 | 43.49759 | 77.11418 | 10145 ft | 298 kts | 231° |
| 2026-05-04 19:52 | 43.48565 | 77.09083 | 10163 ft | 298 kts | 237° |
| 2026-05-04 19:52 | 43.47424 | 77.06701 | 10132 ft | 297 kts | 237° |
| 2026-05-04 19:53 | 43.46277 | 77.04332 | 10117 ft | 298 kts | 237° |
| 2026-05-04 19:53 | 43.45126 | 77.01986 | 10112 ft | 298 kts | 237° |
| 2026-05-04 19:53 | 43.43959 | 76.99626 | 10109 ft | 298 kts | 236° |
| 2026-05-04 19:53 | 43.42796 | 76.97282 | 9913 ft | 300 kts | 236° |
| 2026-05-04 19:54 | 43.41625 | 76.94929 | 9591 ft | 299 kts | 236° |
| 2026-05-04 19:54 | 43.40451 | 76.92575 | 9272 ft | 299 kts | 236° |
| 2026-05-04 19:54 | 43.39273 | 76.90218 | 8950 ft | 299 kts | 236° |
| 2026-05-04 19:54 | 43.38118 | 76.87907 | 8570 ft | 289 kts | 236° |
| 2026-05-04 19:55 | 43.36997 | 76.85668 | 8242 ft | 277 kts | 236° |
| 2026-05-04 19:55 | 43.35935 | 76.83549 | 7919 ft | 266 kts | 236° |
| 2026-05-04 19:55 | 43.34897 | 76.81478 | 7594 ft | 258 kts | 236° |
| 2026-05-04 19:55 | 43.33903 | 76.79492 | 7271 ft | 250 kts | 236° |
| 2026-05-04 19:56 | 43.32943 | 76.77570 | 7124 ft | 241 kts | 236° |
| 2026-05-04 19:56 | 43.31904 | 76.75775 | 7096 ft | 239 kts | 216° |
| 2026-05-04 19:56 | 43.30393 | 76.74972 | 6839 ft | 239 kts | 179° |
| 2026-05-04 19:56 | 43.28838 | 76.75620 | 6400 ft | 237 kts | 144° |
| 2026-05-04 19:57 | 43.27509 | 76.76960 | 6070 ft | 234 kts | 141° |
| 2026-05-04 19:57 | 43.26244 | 76.78323 | 5757 ft | 230 kts | 132° |
| 2026-05-04 19:57 | 43.25555 | 76.80193 | 5417 ft | 221 kts | 91° |
| 2026-05-04 19:57 | 43.25670 | 76.82245 | 5183 ft | 213 kts | 84° |
| 2026-05-04 19:58 | 43.25864 | 76.84232 | 4926 ft | 205 kts | 73° |
| 2026-05-04 19:58 | 43.26370 | 76.85963 | 4692 ft | 191 kts | 62° |
| 2026-05-04 19:58 | 43.27054 | 76.87497 | 4462 ft | 188 kts | 56° |
| 2026-05-04 19:58 | 43.27795 | 76.88951 | 4243 ft | 180 kts | 55° |
| 2026-05-04 19:59 | 43.28484 | 76.90297 | 4172 ft | 166 kts | 56° |
| 2026-05-04 19:59 | 43.29118 | 76.91567 | 3970 ft | 160 kts | 56° |
| 2026-05-04 19:59 | 43.29726 | 76.92802 | 3762 ft | 154 kts | 56° |
| 2026-05-04 19:59 | 43.30313 | 76.94000 | 3561 ft | 147 kts | 56° |
| 2026-05-04 20:00 | 43.30874 | 76.95144 | 3376 ft | 143 kts | 56° |
| 2026-05-04 20:00 | 43.31433 | 76.96278 | 3207 ft | 142 kts | 56° |
| 2026-05-04 20:00 | 43.31980 | 76.97386 | 3014 ft | 140 kts | 57° |
| 2026-05-04 20:00 | 43.32519 | 76.98490 | 2804 ft | 138 kts | 55° |
| 2026-05-04 20:01 | 43.33062 | 76.99573 | 2637 ft | 140 kts | 56° |
| 2026-05-04 20:01 | 43.33617 | 77.00697 | 2456 ft | 142 kts | 57° |
| 2026-05-04 20:01 | 43.34170 | 77.01820 | 2264 ft | 143 kts | 56° |
| 2026-05-04 20:01 | 43.34630 | 77.02776 | 2232 ft | 75 kts | 52° |
| 2026-05-04 20:02 | 43.34761 | 77.03002 | 2230 ft | 11 kts | 26° |
| 2026-05-04 20:02 | 43.34794 | 77.02966 | 2229 ft | 8 kts | 270° |
| 2026-05-04 20:02 | 43.34788 | 77.02870 | 2227 ft | 11 kts | 263° |
| 2026-05-04 20:02 | 43.34781 | 77.02757 | 2228 ft | 12 kts | 265° |
| 2026-05-04 20:03 | 43.34776 | 77.02630 | 2227 ft | 14 kts | 268° |
| 2026-05-04 20:03 | 43.34774 | 77.02493 | 2227 ft | 14 kts | 271° |
| 2026-05-04 20:03 | 43.34779 | 77.02349 | 2227 ft | 15 kts | 274° |
| 2026-05-04 20:03 | 43.34787 | 77.02192 | 2224 ft | 17 kts | 274° |
| 2026-05-04 20:04 | 43.34795 | 77.02049 | 2223 ft | 14 kts | 274° |
| 2026-05-04 20:04 | 43.34801 | 77.01906 | 2223 ft | 14 kts | 273° |
| 2026-05-04 20:04 | 43.34808 | 77.01762 | 2223 ft | 15 kts | 273° |
| 2026-05-04 20:04 | 43.34813 | 77.01619 | 2223 ft | 11 kts | 273° |
| 2026-05-04 20:05 | 43.34816 | 77.01559 | 2223 ft | 5 kts | 276° |
| 2026-05-04 20:05 | 43.34841 | 77.01509 | 2222 ft | 7 kts | 323° |
| 2026-05-04 20:05 | 43.34903 | 77.01478 | 2221 ft | 10 kts | 343° |
| 2026-05-04 20:05 | 43.34984 | 77.01441 | 2219 ft | 12 kts | 341° |
| 2026-05-04 20:06 | 43.35039 | 77.01411 | 2218 ft | 5 kts | 335° |
| 2026-05-04 20:06 | 43.35067 | 77.01369 | 2218 ft | 7 kts | 281° |
| 2026-05-04 20:06 | 43.35057 | 77.01300 | 2218 ft | 5 kts | 250° |
| 2026-05-04 20:06 | 43.35054 | 77.01292 | 2218 ft | 0 kts | 250° |